Time;durP1;ratioP1;P1;durP2;ratioP2;P2;SDS_P1;SDS_P2;PMS_P1;PMS_P2;Temp;Humidity;BMP_temperature;BMP_pressure;BME280_temperature;BME280_humidity;BME280_pressure;Samples;Min_cycle;Max_cycle;Signal;HPM_P1;HPM_P2
2021/09/23 00:00:57;;;;;;;37.30;31.00;;;10.50;99.90;;;;;;5050979;28;20194;-67
2021/09/23 00:05:56;;;;;;;42.80;33.10;;;10.50;99.90;;;;;;5031432;28;20171;-67
2021/09/23 00:08:21;;;;;;;53.27;36.47;;;10.50;99.90;;;;;;5042575;28;20209;-67
2021/09/23 00:10:47;;;;;;;50.17;34.33;;;10.50;99.90;;;;;;5037635;28;20568;-67
2021/09/23 00:13:13;;;;;;;48.63;34.13;;;10.50;99.90;;;;;;5032610;28;20167;-68
2021/09/23 00:15:40;;;;;;;48.90;34.23;;;10.50;99.90;;;;;;5031246;28;20181;-66
2021/09/23 00:18:17;;;;;;;45.60;34.63;;;10.50;99.90;;;;;;5039069;28;20175;-67
2021/09/23 00:20:46;;;;;;;42.90;33.83;;;10.50;99.90;;;;;;5050734;28;20189;-66
2021/09/23 00:23:12;;;;;;;46.60;32.70;;;10.50;99.90;;;;;;5043242;28;20183;-68
2021/09/23 00:25:39;;;;;;;43.77;34.17;;;10.50;99.90;;;;;;5031251;28;20699;-66
2021/09/23 00:28:06;;;;;;;41.73;32.63;;;10.50;99.90;;;;;;5037208;28;20206;-67
2021/09/23 00:30:33;;;;;;;41.57;31.97;;;10.50;99.90;;;;;;5050733;28;20199;-67
2021/09/23 00:32:58;;;;;;;42.87;32.07;;;10.50;99.90;;;;;;5045937;28;20187;-67
2021/09/23 00:35:25;;;;;;;42.27;31.40;;;10.50;99.90;;;;;;5031083;28;20172;-67
2021/09/23 00:37:51;;;;;;;43.83;32.47;;;10.40;99.90;;;;;;5033866;28;20218;-67
2021/09/23 00:40:17;;;;;;;39.57;31.50;;;10.40;99.90;;;;;;5050804;28;20206;-67
2021/09/23 00:42:47;;;;;;;39.67;32.27;;;10.40;99.90;;;;;;5049375;28;20198;-67
2021/09/23 00:45:13;;;;;;;37.80;30.10;;;10.40;99.90;;;;;;5031331;28;20198;-67
2021/09/23 00:47:39;;;;;;;42.73;31.07;;;10.40;99.90;;;;;;5030831;28;20284;-67
2021/09/23 00:50:06;;;;;;;42.10;31.60;;;10.30;99.90;;;;;;5050505;28;20217;-67
2021/09/23 00:52:33;;;;;;;41.23;30.73;;;10.30;99.90;;;;;;5050797;28;20183;-67
2021/09/23 00:54:59;;;;;;;42.27;30.70;;;10.30;99.90;;;;;;5034741;28;20191;-68
2021/09/23 00:57:25;;;;;;;44.10;32.77;;;10.30;99.90;;;;;;5050879;28;20181;-67
2021/09/23 00:59:54;;;;;;;44.00;31.90;;;10.30;99.90;;;;;;5033898;28;20629;-67
2021/09/23 01:02:20;;;;;;;39.20;29.97;;;10.30;99.90;;;;;;5032828;28;20253;-68
2021/09/23 01:04:46;;;;;;;42.77;32.23;;;10.30;99.90;;;;;;5049508;28;20190;-67
2021/09/23 01:07:16;;;;;;;42.50;31.37;;;10.20;99.90;;;;;;5054373;28;20688;-66
2021/09/23 01:09:47;;;;;;;42.67;30.77;;;10.10;99.90;;;;;;5051713;28;20533;-66
2021/09/23 01:12:15;;;;;;;42.60;33.70;;;10.10;99.90;;;;;;5054323;28;20195;-67
2021/09/23 01:14:41;;;;;;;43.10;33.83;;;10.10;99.90;;;;;;5038904;28;20608;-66
2021/09/23 01:17:08;;;;;;;45.13;33.63;;;10.00;99.90;;;;;;5043193;28;20181;-67
2021/09/23 01:19:34;;;;;;;40.47;31.70;;;10.10;99.90;;;;;;5053956;28;20178;-66
2021/09/23 01:22:00;;;;;;;38.83;30.73;;;10.00;99.90;;;;;;5048935;28;20244;-66
2021/09/23 01:24:26;;;;;;;38.60;31.40;;;10.00;99.90;;;;;;5054404;28;20234;-67
2021/09/23 01:26:55;;;;;;;41.67;33.70;;;10.00;99.90;;;;;;5043714;28;20656;-66
2021/09/23 01:29:22;;;;;;;43.63;34.60;;;10.10;99.90;;;;;;5034072;28;20160;-67
2021/09/23 01:31:47;;;;;;;41.37;33.23;;;10.10;99.90;;;;;;5042427;28;20244;-67
2021/09/23 01:34:13;;;;;;;38.93;31.47;;;10.00;99.90;;;;;;5054093;28;20175;-67
2021/09/23 01:36:40;;;;;;;38.57;31.87;;;10.00;99.90;;;;;;5046948;28;20175;-66
2021/09/23 01:39:05;;;;;;;42.87;32.33;;;9.90;99.90;;;;;;5033975;28;20183;-66
2021/09/23 01:41:31;;;;;;;50.50;36.40;;;9.80;99.90;;;;;;5038602;28;20332;-67
2021/09/23 01:43:57;;;;;;;50.70;34.83;;;9.90;99.90;;;;;;5053722;28;20170;-67
2021/09/23 01:46:22;;;;;;;48.40;35.87;;;9.80;99.90;;;;;;5050388;28;20229;-67
2021/09/23 01:48:48;;;;;;;47.17;35.80;;;9.80;99.90;;;;;;5033902;28;20265;-67
2021/09/23 01:51:14;;;;;;;49.30;37.93;;;9.90;99.90;;;;;;5034611;28;20245;-67
2021/09/23 01:53:39;;;;;;;48.47;39.00;;;9.90;99.90;;;;;;5053597;28;20171;-66
2021/09/23 01:56:05;;;;;;;46.50;38.70;;;9.90;99.90;;;;;;5053566;28;20201;-66
2021/09/23 01:58:30;;;;;;;45.93;35.67;;;10.00;99.90;;;;;;5033879;28;20187;-68
2021/09/23 02:00:56;;;;;;;48.93;35.90;;;10.00;99.90;;;;;;5032988;28;20192;-68
2021/09/23 02:03:22;;;;;;;50.73;38.97;;;10.10;99.90;;;;;;5050830;28;20710;-67
2021/09/23 02:05:48;;;;;;;48.47;38.47;;;10.10;99.90;;;;;;5053389;28;20171;-67
2021/09/23 02:08:13;;;;;;;48.10;35.87;;;10.10;99.90;;;;;;5037553;28;20241;-66
2021/09/23 02:10:39;;;;;;;41.63;33.97;;;10.10;99.90;;;;;;5032140;28;20552;-67
2021/09/23 02:13:05;;;;;;;45.03;35.37;;;10.10;99.90;;;;;;5046067;28;20179;-66
2021/09/23 02:15:30;;;;;;;43.40;34.63;;;10.10;99.90;;;;;;5053058;28;20174;-66
2021/09/23 02:17:56;;;;;;;44.70;35.97;;;10.00;99.90;;;;;;5051476;28;20592;-66
2021/09/23 02:20:22;;;;;;;50.17;36.43;;;10.00;99.90;;;;;;5052776;28;20182;-66
2021/09/23 02:22:48;;;;;;;43.33;35.10;;;9.90;99.90;;;;;;5042512;28;20215;-67
2021/09/23 02:25:13;;;;;;;45.80;35.87;;;10.00;99.90;;;;;;5033141;28;20176;-67
2021/09/23 02:27:39;;;;;;;42.10;35.00;;;9.90;99.90;;;;;;5040818;28;20206;-66
2021/09/23 02:30:07;;;;;;;40.93;35.17;;;9.90;99.90;;;;;;5052668;28;20174;-67
2021/09/23 02:32:33;;;;;;;42.63;33.67;;;9.90;99.90;;;;;;5045907;28;20200;-67
2021/09/23 02:34:59;;;;;;;39.33;32.73;;;9.90;99.90;;;;;;5032763;28;20178;-67
2021/09/23 02:37:25;;;;;;;41.93;33.93;;;9.90;99.90;;;;;;5033994;28;20175;-67
2021/09/23 02:39:52;;;;;;;44.70;32.67;;;9.90;99.90;;;;;;5043767;28;20237;-68
2021/09/23 02:42:18;;;;;;;40.87;33.70;;;9.90;99.90;;;;;;5049272;28;20198;-68
2021/09/23 02:44:44;;;;;;;43.93;34.13;;;9.90;99.90;;;;;;5032855;28;20175;-67
2021/09/23 02:47:10;;;;;;;43.87;34.00;;;9.90;99.90;;;;;;5033811;28;20214;-67
2021/09/23 02:49:35;;;;;;;39.83;32.50;;;9.80;99.90;;;;;;5052220;28;20258;-67
2021/09/23 02:52:01;;;;;;;44.73;32.83;;;9.80;99.90;;;;;;5052338;28;20553;-64
2021/09/23 02:54:27;;;;;;;49.60;36.80;;;9.80;99.90;;;;;;5032841;28;20176;-66
2021/09/23 02:56:52;;;;;;;44.77;35.97;;;9.70;99.90;;;;;;5032176;28;20263;-67
2021/09/23 02:59:18;;;;;;;41.43;34.77;;;9.70;99.90;;;;;;5049772;28;20190;-66
2021/09/23 03:01:43;;;;;;;46.97;34.20;;;9.60;99.90;;;;;;5052098;28;20297;-67
2021/09/23 03:04:09;;;;;;;43.33;34.50;;;9.60;99.90;;;;;;5050686;28;20174;-66
2021/09/23 03:06:35;;;;;;;41.37;35.23;;;9.60;99.90;;;;;;5052231;28;20179;-68
2021/09/23 03:09:00;;;;;;;45.30;34.33;;;9.60;99.90;;;;;;5037889;28;20179;-68
2021/09/23 03:11:26;;;;;;;47.60;33.63;;;9.60;99.90;;;;;;5031641;28;20600;-67
2021/09/23 03:13:52;;;;;;;46.13;34.23;;;9.60;99.90;;;;;;5043971;28;20583;-66
2021/09/23 03:16:18;;;;;;;43.00;33.83;;;9.60;99.90;;;;;;5046755;28;20679;-66
2021/09/23 03:18:45;;;;;;;44.47;35.13;;;9.60;99.90;;;;;;5032448;28;20175;-64
2021/09/23 03:21:12;;;;;;;42.27;35.70;;;9.50;99.90;;;;;;5035106;28;20214;-67
2021/09/23 03:23:38;;;;;;;44.27;36.37;;;9.50;99.90;;;;;;5050678;28;20181;-66
2021/09/23 03:26:04;;;;;;;43.23;38.57;;;9.60;99.90;;;;;;5049832;28;20167;-66
2021/09/23 03:28:30;;;;;;;45.70;38.73;;;9.60;99.90;;;;;;5031931;28;20273;-66
2021/09/23 03:30:57;;;;;;;54.83;38.23;;;9.50;99.90;;;;;;5036960;28;20221;-66
2021/09/23 03:33:23;;;;;;;50.97;37.27;;;9.50;99.90;;;;;;5052021;28;20167;-68
2021/09/23 03:35:49;;;;;;;52.70;37.50;;;9.50;99.90;;;;;;5050171;28;20206;-66
2021/09/23 03:38:15;;;;;;;48.80;35.57;;;9.50;99.90;;;;;;5051842;28;20224;-67
2021/09/23 03:40:44;;;;;;;45.57;35.30;;;9.50;99.90;;;;;;5049591;28;20598;-67
2021/09/23 03:43:09;;;;;;;47.50;35.73;;;9.50;99.90;;;;;;5051683;28;20190;-67
2021/09/23 03:45:35;;;;;;;52.90;40.07;;;9.50;99.90;;;;;;5050322;28;20285;-66
2021/09/23 03:48:01;;;;;;;54.33;41.33;;;9.40;99.90;;;;;;5031824;28;20596;-67
2021/09/23 03:50:27;;;;;;;47.77;36.67;;;9.50;99.90;;;;;;5031590;28;20172;-66
2021/09/23 03:52:53;;;;;;;59.67;38.17;;;9.40;99.90;;;;;;5050473;28;20269;-66
2021/09/23 03:55:18;;;;;;;54.83;38.33;;;9.40;99.90;;;;;;5051829;28;20171;-66
2021/09/23 03:57:45;;;;;;;54.00;38.47;;;9.40;99.90;;;;;;5033914;28;20266;-67
2021/09/23 04:00:12;;;;;;;50.63;38.57;;;9.40;99.90;;;;;;5031286;28;20250;-66
2021/09/23 04:02:38;;;;;;;53.33;38.37;;;9.30;99.90;;;;;;5047081;28;20198;-67
2021/09/23 04:05:04;;;;;;;48.93;36.57;;;9.30;99.90;;;;;;5051383;28;20174;-67
2021/09/23 04:07:29;;;;;;;52.30;38.33;;;9.40;99.90;;;;;;5037366;28;20210;-67
2021/09/23 04:09:55;;;;;;;53.27;38.43;;;9.30;99.90;;;;;;5030533;28;20172;-67
2021/09/23 04:12:21;;;;;;;58.70;39.60;;;9.30;99.90;;;;;;5043312;28;20203;-67
2021/09/23 04:14:46;;;;;;;51.17;37.47;;;9.30;99.90;;;;;;5051300;28;20166;-67
2021/09/23 04:17:12;;;;;;;55.93;38.23;;;9.20;99.90;;;;;;5040907;28;20183;-68
2021/09/23 04:19:37;;;;;;;56.17;38.43;;;9.10;99.90;;;;;;5031123;28;20668;-66
2021/09/23 04:22:03;;;;;;;59.57;40.33;;;9.20;99.90;;;;;;5039290;28;20210;-66
2021/09/23 04:24:29;;;;;;;49.10;40.07;;;9.10;99.90;;;;;;5051353;28;20190;-66
2021/09/23 04:26:55;;;;;;;55.43;40.93;;;9.10;99.90;;;;;;5033263;28;20573;-67
2021/09/23 04:29:20;;;;;;;57.23;39.93;;;9.10;99.90;;;;;;5031194;28;20207;-67
2021/09/23 04:31:46;;;;;;;52.53;40.47;;;9.10;99.90;;;;;;5046616;28;20562;-66
2021/09/23 04:34:12;;;;;;;51.27;38.73;;;9.10;99.90;;;;;;5051369;28;20237;-66
2021/09/23 04:36:37;;;;;;;54.63;39.50;;;9.10;99.90;;;;;;5037855;28;20187;-66
2021/09/23 04:39:04;;;;;;;52.33;39.17;;;9.10;99.90;;;;;;5034764;28;20541;-67
2021/09/23 04:41:29;;;;;;;59.50;43.03;;;9.10;99.90;;;;;;5046866;28;20199;-66
2021/09/23 04:43:55;;;;;;;56.70;41.03;;;9.10;99.90;;;;;;5054941;28;20175;-67
2021/09/23 04:46:21;;;;;;;67.00;41.97;;;9.10;99.90;;;;;;5044486;28;20171;-67
2021/09/23 04:48:50;;;;;;;55.20;40.30;;;9.20;99.90;;;;;;5035064;28;20199;-66
2021/09/23 04:51:20;;;;;;;59.00;47.50;;;9.20;99.90;;;;;;5053963;28;20194;-66
2021/09/23 04:53:45;;;;;;;62.53;52.83;;;9.20;99.90;;;;;;5054706;28;20212;-67
2021/09/23 04:56:11;;;;;;;68.33;52.43;;;9.20;99.90;;;;;;5036460;28;20179;-67
2021/09/23 04:58:36;;;;;;;59.60;40.23;;;9.10;99.90;;;;;;5034909;28;20633;-66
2021/09/23 05:01:02;;;;;;;58.80;40.53;;;9.10;99.90;;;;;;5050229;28;20634;-66
2021/09/23 05:03:28;;;;;;;53.27;39.37;;;9.10;99.90;;;;;;5054819;28;20254;-67
2021/09/23 05:05:53;;;;;;;55.37;41.23;;;9.10;99.90;;;;;;5040123;28;20456;-67
2021/09/23 05:08:19;;;;;;;57.37;40.73;;;9.10;99.90;;;;;;5034686;28;20235;-67
2021/09/23 05:10:45;;;;;;;56.20;41.27;;;9.10;99.90;;;;;;5045938;28;20537;-67
2021/09/23 05:13:10;;;;;;;56.73;45.43;;;9.10;99.90;;;;;;5055312;28;20179;-67
2021/09/23 05:15:37;;;;;;;54.63;40.80;;;9.10;99.90;;;;;;5041351;28;20176;-68
2021/09/23 05:18:03;;;;;;;52.70;41.90;;;9.10;99.90;;;;;;5034385;28;20168;-67
2021/09/23 05:20:29;;;;;;;54.20;37.77;;;9.00;99.90;;;;;;5046164;28;20182;-67
2021/09/23 05:22:55;;;;;;;47.33;36.30;;;9.10;99.90;;;;;;5093314;22;20264;-65
2021/09/23 05:25:21;;;;;;;53.97;38.30;;;9.00;99.90;;;;;;5073598;28;20258;-65
2021/09/23 05:27:46;;;;;;;58.20;36.67;;;9.00;99.90;;;;;;5073908;28;20206;-65
2021/09/23 05:30:12;;;;;;;52.77;37.87;;;8.90;99.90;;;;;;5063021;28;20175;-64
2021/09/23 05:32:40;;;;;;;51.53;39.03;;;8.90;99.90;;;;;;5039082;28;20187;-64
2021/09/23 05:35:07;;;;;;;51.50;38.13;;;8.90;99.90;;;;;;5052430;28;20244;-64
2021/09/23 05:37:33;;;;;;;49.40;42.80;;;8.90;99.90;;;;;;5053953;28;20221;-64
2021/09/23 05:39:59;;;;;;;67.17;44.93;;;8.90;99.90;;;;;;5039123;28;20195;-65
2021/09/23 05:42:24;;;;;;;63.77;46.87;;;8.90;99.90;;;;;;5037535;28;20363;-65
2021/09/23 05:44:51;;;;;;;64.23;50.57;;;9.00;99.90;;;;;;5033740;28;20168;-65
2021/09/23 05:47:17;;;;;;;58.03;43.60;;;8.90;99.90;;;;;;5047390;28;20211;-64
2021/09/23 05:49:42;;;;;;;59.53;49.30;;;9.00;99.90;;;;;;5052250;28;20544;-64
2021/09/23 05:52:08;;;;;;;69.13;62.00;;;9.00;99.90;;;;;;5034545;28;20230;-65
2021/09/23 05:54:34;;;;;;;80.63;72.90;;;9.10;99.90;;;;;;5033430;28;20712;-65
2021/09/23 05:57:00;;;;;;;59.00;46.50;;;9.10;99.90;;;;;;5042062;28;20226;-64
2021/09/23 05:59:26;;;;;;;53.00;37.87;;;9.20;99.90;;;;;;5033219;28;20214;-65
2021/09/23 06:01:54;;;;;;;58.10;39.93;;;9.20;99.90;;;;;;5048608;28;20964;-65
2021/09/23 06:04:20;;;;;;;50.33;38.67;;;9.20;99.90;;;;;;5053372;28;20203;-65
2021/09/23 06:06:46;;;;;;;53.47;38.77;;;9.30;99.90;;;;;;5038730;28;20625;-65
2021/09/23 06:09:12;;;;;;;56.80;38.53;;;9.40;99.90;;;;;;5032912;28;20210;-64
2021/09/23 06:11:39;;;;;;;55.10;37.97;;;9.50;99.90;;;;;;5044047;28;20198;-64
2021/09/23 06:14:05;;;;;;;55.83;39.93;;;9.60;99.90;;;;;;5051840;28;20774;-64
2021/09/23 06:16:31;;;;;;;50.67;38.17;;;9.70;99.90;;;;;;5041903;28;20254;-64
2021/09/23 06:18:57;;;;;;;48.17;36.97;;;9.80;99.90;;;;;;5032755;28;20298;-64
2021/09/23 06:21:22;;;;;;;54.77;40.30;;;9.80;99.90;;;;;;5040457;28;20202;-64
2021/09/23 06:23:48;;;;;;;54.10;38.83;;;9.90;99.90;;;;;;5052889;28;20194;-64
2021/09/23 06:26:14;;;;;;;47.00;36.50;;;10.00;99.90;;;;;;5045113;28;20405;-65
2021/09/23 06:28:39;;;;;;;41.80;34.47;;;10.10;99.90;;;;;;5039265;28;20202;-64
2021/09/23 06:31:05;;;;;;;42.87;35.37;;;10.20;99.90;;;;;;5052101;28;20228;-65
2021/09/23 06:33:31;;;;;;;43.40;32.53;;;10.30;99.90;;;;;;5051156;28;20202;-64
2021/09/23 06:35:56;;;;;;;44.53;33.43;;;10.40;99.90;;;;;;5051208;28;20206;-64
2021/09/23 06:38:22;;;;;;;40.40;32.00;;;10.60;99.90;;;;;;5048318;28;20542;-64
2021/09/23 06:40:48;;;;;;;27.30;24.50;;;11.10;99.90;;;;;;5032249;28;20221;-64
2021/09/23 06:43:13;;;;;;;25.00;21.53;;;11.80;99.90;;;;;;5034778;28;20203;-64
2021/09/23 06:45:39;;;;;;;17.37;15.40;;;12.60;99.90;;;;;;5052627;28;20174;-65
2021/09/23 06:48:05;;;;;;;19.70;14.10;;;13.30;99.90;;;;;;5051414;28;20244;-65
2021/09/23 06:50:30;;;;;;;16.07;11.97;;;13.90;99.90;;;;;;5032281;28;20190;-65
2021/09/23 06:52:56;;;;;;;15.83;12.20;;;14.50;99.90;;;;;;5032091;28;20270;-62
2021/09/23 06:55:22;;;;;;;11.60;10.47;;;14.70;99.90;;;;;;5051069;28;20254;-63
2021/09/23 06:57:47;;;;;;;15.40;11.27;;;14.90;99.90;;;;;;5052103;28;20174;-65
2021/09/23 07:00:13;;;;;;;11.70;10.60;;;15.00;99.90;;;;;;5050004;28;20213;-65
2021/09/23 07:02:39;;;;;;;11.67;10.17;;;14.80;99.90;;;;;;5052076;28;20222;-64
2021/09/23 07:05:05;;;;;;;13.47;10.13;;;14.80;99.90;;;;;;5036166;28;20226;-64
2021/09/23 07:07:31;;;;;;;12.67;10.10;;;15.20;99.90;;;;;;5043309;28;20660;-64
2021/09/23 07:10:00;;;;;;;10.50;9.47;;;15.50;99.90;;;;;;5052021;28;20217;-65
2021/09/23 07:12:25;;;;;;;14.03;9.13;;;15.80;99.90;;;;;;5041710;28;20462;-65
2021/09/23 07:14:51;;;;;;;10.70;8.73;;;16.10;99.90;;;;;;5038640;28;20197;-63
2021/09/23 07:17:16;;;;;;;879.37;364.73;;;16.30;99.90;;;;;;5051808;28;20243;-63
2021/09/23 07:19:42;;;;;;;1999.90;999.90;;;16.60;99.90;;;;;;5045934;28;20194;-63
2021/09/23 07:22:09;;;;;;;11.93;8.33;;;17.10;99.90;;;;;;5031770;28;20273;-63
2021/09/23 07:24:35;;;;;;;12.20;8.70;;;17.40;99.90;;;;;;5035141;28;20206;-63
2021/09/23 07:27:00;;;;;;;10.17;8.67;;;18.00;99.90;;;;;;5051477;28;20210;-63
2021/09/23 07:29:27;;;;;;;8.90;8.10;;;18.40;99.90;;;;;;5049765;28;20631;-63
2021/09/23 07:31:53;;;;;;;12.17;7.97;;;18.50;99.90;;;;;;5051401;28;20222;-63
2021/09/23 07:34:20;;;;;;;9.50;8.17;;;18.90;99.90;;;;;;5033502;28;20183;-63
2021/09/23 07:36:46;;;;;;;9.87;8.87;;;18.70;99.90;;;;;;5031839;28;20171;-63
2021/09/23 07:39:11;;;;;;;11.23;8.40;;;18.60;99.90;;;;;;5047356;28;20171;-63
2021/09/23 07:41:39;;;;;;;9.10;8.30;;;18.80;99.90;;;;;;5051223;28;20664;-63
2021/09/23 07:44:07;;;;;;;9.53;8.07;;;18.80;99.90;;;;;;5049934;28;20187;-63
2021/09/23 07:46:33;;;;;;;11.23;8.20;;;18.90;99.90;;;;;;5051334;28;20595;-63
2021/09/23 07:48:58;;;;;;;13.00;8.95;;;19.10;99.90;;;;;;5037313;28;20187;-63
2021/09/23 07:51:24;;;;;;;13.37;8.07;;;19.30;99.90;;;;;;5031292;28;20195;-63
2021/09/23 07:53:49;;;;;;;9.40;8.43;;;19.10;99.90;;;;;;5035240;28;20218;-63
2021/09/23 07:56:15;;;;;;;9.37;8.37;;;19.00;99.90;;;;;;5031653;28;20659;-63
2021/09/23 07:58:41;;;;;;;9.00;7.53;;;19.30;99.90;;;;;;5045265;28;20175;-63
2021/09/23 08:01:07;;;;;;;8.63;7.73;;;19.20;99.90;;;;;;5050974;28;20185;-64
2021/09/23 08:03:33;;;;;;;9.75;7.85;;;19.50;99.90;;;;;;5036306;28;20667;-64
2021/09/23 08:05:59;;;;;;;8.87;7.90;;;19.70;99.90;;;;;;5031301;28;20164;-63
2021/09/23 08:08:24;;;;;;;13.23;7.77;;;19.70;99.90;;;;;;5041974;28;20199;-63
2021/09/23 08:10:50;;;;;;;8.23;7.43;;;19.70;99.90;;;;;;5050748;28;20301;-63
2021/09/23 08:13:15;;;;;;;13.55;7.30;;;19.90;99.90;;;;;;5038873;28;20257;-64
2021/09/23 08:15:44;;;;;;;11.20;7.65;;;20.30;99.90;;;;;;5035253;28;20171;-63
2021/09/23 08:18:10;;;;;;;13.90;8.57;;;20.60;99.90;;;;;;5049218;28;20281;-63
2021/09/23 08:20:36;;;;;;;19.48;8.07;;;21.00;99.90;;;;;;5046590;28;20190;-63
2021/09/23 08:23:02;;;;;;;11.25;7.10;;;21.50;99.90;;;;;;5040374;28;20210;-62
2021/09/23 08:25:27;;;;;;;8.30;7.03;;;22.00;99.90;;;;;;5055035;28;20577;-63
2021/09/23 08:27:53;;;;;;;8.73;6.75;;;22.40;99.90;;;;;;5050635;28;20205;-63
2021/09/23 08:30:19;;;;;;;7.68;6.88;;;22.50;99.90;;;;;;5034877;28;20250;-63
2021/09/23 08:32:44;;;;;;;9.50;7.45;;;22.60;99.90;;;;;;5037055;28;20191;-63
2021/09/23 08:35:10;;;;;;;9.95;7.65;;;22.80;99.90;;;;;;5054828;28;20202;-63
2021/09/23 08:37:37;;;;;;;8.18;7.38;;;22.80;99.90;;;;;;5054324;28;20520;-63
2021/09/23 08:40:11;;;;;;;9.73;7.70;;;22.80;99.90;;;;;;5034528;28;20176;-63
2021/09/23 08:42:39;;;;;;;11.80;7.60;;;22.80;99.90;;;;;;5034710;28;20191;-63
2021/09/23 08:45:07;;;;;;;11.30;7.80;;;23.00;99.90;;;;;;5034850;28;20171;-63
2021/09/23 08:47:33;;;;;;;11.00;7.10;;;22.80;99.90;;;;;;5035750;28;20203;-63
2021/09/23 08:50:00;;;;;;;8.40;7.22;;;22.80;99.90;;;;;;5034404;28;20229;-63
2021/09/23 08:52:28;;;;;;;15.98;8.43;;;22.80;99.90;;;;;;5034540;28;20223;-63
2021/09/23 08:54:53;;;;;;;11.05;6.65;;;22.90;99.90;;;;;;5034679;28;20172;-63
2021/09/23 08:57:19;;;;;;;8.48;7.10;;;22.90;99.90;;;;;;5034548;28;20267;-63
2021/09/23 08:59:45;;;;;;;10.95;7.63;;;23.20;99.90;;;;;;5052292;28;20273;-63
2021/09/23 09:02:27;;;;;;;10.13;6.72;;;23.10;99.90;;;;;;5054428;28;20222;-63
2021/09/23 09:04:55;;;;;;;11.55;7.57;;;23.70;99.90;;;;;;5035144;28;20670;-63
2021/09/23 09:07:28;;;;;;;8.40;6.68;;;23.90;99.90;;;;;;5034102;28;20199;-63
2021/09/23 09:10:14;;;;;;;7.50;6.50;;;23.90;99.90;;;;;;5052314;28;20206;-64
2021/09/23 09:12:41;;;;;;;7.75;6.95;;;24.10;99.90;;;;;;5050428;28;20207;-64
2021/09/23 09:15:07;;;;;;;8.77;7.18;;;24.10;99.90;;;;;;5035339;28;20270;-64
2021/09/23 09:17:35;;;;;;;8.18;7.50;;;24.30;99.90;;;;;;5035826;28;20172;-64
2021/09/23 09:20:03;;;;;;;9.75;6.93;;;24.10;99.90;;;;;;5053855;28;20580;-63
2021/09/23 09:22:31;;;;;;;7.60;6.07;;;23.80;99.90;;;;;;5052792;28;20344;-64
2021/09/23 09:24:59;;;;;;;11.43;7.53;;;23.90;99.90;;;;;;5033975;28;20267;-64
2021/09/23 09:27:33;;;;;;;8.50;6.95;;;24.30;99.90;;;;;;5033983;28;20602;-64
2021/09/23 09:30:22;;;;;;;10.40;7.20;;;24.50;99.90;;;;;;5039078;28;20583;-64
2021/09/23 09:32:50;;;;;;;8.60;7.05;;;24.60;99.90;;;;;;5051486;28;20187;-63
2021/09/23 09:35:24;;;;;;;8.40;6.30;;;24.70;99.90;;;;;;5034045;28;20645;-63
2021/09/23 09:37:51;;;;;;;9.02;7.80;;;24.40;99.90;;;;;;5035304;28;20198;-63
2021/09/23 09:40:39;;;;;;;8.75;6.32;;;24.10;99.90;;;;;;5053848;28;20660;-63
2021/09/23 09:43:12;;;;;;;9.98;7.25;;;24.00;99.90;;;;;;5033838;28;20779;-64
2021/09/23 09:45:38;;;;;;;9.98;8.15;;;23.80;99.90;;;;;;5033834;28;20595;-62
2021/09/23 09:48:04;;;;;;;19.23;6.70;;;23.20;99.90;;;;;;5034293;28;20203;-63
2021/09/23 09:50:33;;;;;;;12.80;7.75;;;22.50;99.90;;;;;;5033308;28;20176;-63
2021/09/23 09:53:04;;;;;;;7.43;6.78;;;22.40;99.90;;;;;;5051966;28;20253;-63
2021/09/23 09:55:34;;;;;;;7.63;6.93;;;22.40;99.90;;;;;;5053403;28;20183;-63
2021/09/23 09:58:01;;;;;;;8.07;7.15;;;22.50;99.90;;;;;;5035215;28;20245;-63
2021/09/23 10:00:28;;;;;;;8.23;7.15;;;22.40;99.90;;;;;;5033207;28;20179;-63
2021/09/23 10:02:54;;;;;;;7.93;7.07;;;22.30;99.90;;;;;;5049601;28;20199;-62
2021/09/23 10:05:21;;;;;;;7.65;6.85;;;22.30;99.90;;;;;;5053213;28;20576;-62
2021/09/23 10:07:55;;;;;;;9.63;7.28;;;22.70;99.90;;;;;;5037636;28;20187;-62
2021/09/23 10:10:28;;;;;;;12.98;7.85;;;22.80;99.90;;;;;;5033145;28;20189;-62
2021/09/23 10:12:59;;;;;;;7.80;7.00;;;22.80;99.90;;;;;;5048290;28;20195;-63
2021/09/23 10:15:25;;;;;;;7.50;6.50;;;23.00;99.90;;;;;;5052877;28;20171;-62
2021/09/23 10:17:54;;;;;;;8.68;7.53;;;22.80;99.90;;;;;;5051107;28;20174;-63
2021/09/23 10:20:23;;;;;;;9.20;6.93;;;22.70;99.90;;;;;;5052566;28;20198;-63
2021/09/23 10:22:49;;;;;;;9.18;6.30;;;22.70;99.90;;;;;;5038534;28;20289;-63
2021/09/23 10:25:18;;;;;;;9.52;6.95;;;23.00;99.90;;;;;;5032881;28;20244;-63
2021/09/23 10:30:43;;;;;;;8.68;6.57;;;23.40;99.90;;;;;;5034787;28;20270;-63
2021/09/23 10:33:09;;;;;;;12.80;8.07;;;23.80;99.90;;;;;;5050836;28;20194;-62
2021/09/23 10:35:37;;;;;;;10.48;8.98;;;23.70;99.90;;;;;;5051912;28;20174;-62
2021/09/23 10:38:06;;;;;;;26.23;17.02;;;23.50;99.90;;;;;;5038337;28;20175;-63
2021/09/23 10:40:34;;;;;;;22.08;14.68;;;23.60;99.90;;;;;;5032222;28;20684;-62
2021/09/23 10:43:20;;;;;;;11.77;9.73;;;23.60;99.90;;;;;;5045122;28;20301;-62
2021/09/23 10:45:48;;;;;;;17.27;12.85;;;23.30;99.90;;;;;;5052292;28;20662;-62
2021/09/23 10:48:14;;;;;;;17.25;12.88;;;23.10;99.90;;;;;;5037619;28;20294;-62
2021/09/23 10:50:42;;;;;;;19.33;13.52;;;22.90;99.90;;;;;;5031762;28;20159;-63
2021/09/23 10:53:10;;;;;;;18.00;12.90;;;22.70;99.90;;;;;;5045064;28;20562;-63
2021/09/23 10:55:38;;;;;;;13.65;11.63;;;22.70;99.90;;;;;;5052353;28;20260;-62
2021/09/23 10:58:05;;;;;;;13.40;11.52;;;22.50;99.90;;;;;;5040155;28;20321;-62
2021/09/23 11:00:33;;;;;;;12.50;8.00;;;22.40;99.90;;;;;;5041872;28;20190;-63
2021/09/23 11:03:03;;;;;;;8.00;6.93;;;22.70;99.90;;;;;;5052148;28;20221;-62
2021/09/23 11:05:30;;;;;;;8.10;7.53;;;23.20;99.90;;;;;;5042477;28;20183;-62
2021/09/23 11:07:57;;;;;;;11.02;6.60;;;23.60;99.90;;;;;;5031928;28;20203;-62
2021/09/23 11:10:24;;;;;;;11.02;7.25;;;23.90;99.90;;;;;;5039432;28;20170;-62
2021/09/23 11:12:53;;;;;;;8.93;6.38;;;24.10;99.90;;;;;;5047290;28;20703;-62
2021/09/23 11:15:22;;;;;;;8.10;7.40;;;24.30;99.90;;;;;;5031910;28;20205;-62
2021/09/23 11:17:49;;;;;;;10.18;6.50;;;24.30;99.90;;;;;;5035289;28;20179;-62
2021/09/23 11:20:23;;;;;;;7.85;6.55;;;24.40;99.90;;;;;;5051682;28;20546;-63
2021/09/23 11:22:52;;;;;;;7.72;6.22;;;24.60;99.90;;;;;;5086453;22;20573;-64
2021/09/23 11:25:22;;;;;;;7.28;6.68;;;24.60;99.90;;;;;;5071778;28;20208;-64
2021/09/23 11:27:48;;;;;;;21.42;16.70;;;24.30;99.90;;;;;;5068302;28;20618;-64
2021/09/23 11:30:17;;;;;;;16.63;14.93;;;24.10;99.90;;;;;;5071758;28;20197;-65
2021/09/23 11:32:53;;;;;;;10.95;7.70;;;24.30;99.90;;;;;;5066289;28;20195;-66
2021/09/23 11:35:22;;;;;;;7.53;6.80;;;24.60;99.90;;;;;;5051684;28;20174;-65
2021/09/23 11:37:49;;;;;;;10.48;8.25;;;24.80;99.90;;;;;;5056754;28;20178;-65
2021/09/23 11:40:29;;;;;;;9.85;8.95;;;24.90;99.90;;;;;;5071368;28;20228;-64
2021/09/23 11:42:55;;;;;;;9.77;7.57;;;24.30;99.90;;;;;;5065562;28;20199;-64
2021/09/23 11:45:27;;;;;;;9.80;7.18;;;24.30;99.90;;;;;;5051158;28;20683;-64
2021/09/23 11:47:56;;;;;;;10.75;6.95;;;24.50;99.90;;;;;;5051837;28;20310;-64
2021/09/23 11:50:41;;;;;;;9.00;7.68;;;24.60;99.90;;;;;;5051191;28;20232;-64
2021/09/23 11:53:12;;;;;;;9.43;7.95;;;24.50;99.90;;;;;;5052674;28;20193;-65
2021/09/23 11:55:43;;;;;;;11.02;9.45;;;24.10;99.90;;;;;;5050498;28;20228;-64
2021/09/23 11:58:13;;;;;;;13.20;9.50;;;23.80;99.90;;;;;;5057310;28;20170;-64
2021/09/23 12:00:48;;;;;;;8.40;7.60;;;23.60;99.90;;;;;;5051375;28;20185;-65
2021/09/23 12:03:16;;;;;;;11.35;7.35;;;23.50;99.90;;;;;;5057191;28;20189;-64
2021/09/23 12:05:42;;;;;;;9.73;6.78;;;23.20;99.90;;;;;;5071400;28;20212;-65
2021/09/23 12:08:15;;;;;;;8.30;7.60;;;23.20;99.90;;;;;;5066684;28;20206;-65
2021/09/23 12:10:47;;;;;;;10.52;7.40;;;23.50;99.90;;;;;;5050744;28;20181;-64
2021/09/23 12:13:27;;;;;;;10.35;7.60;;;24.00;99.90;;;;;;5055808;28;20188;-64
2021/09/23 12:15:56;;;;;;;7.70;6.90;;;24.40;99.90;;;;;;5071317;28;20173;-65
2021/09/23 12:18:23;;;;;;;8.93;6.78;;;24.30;99.90;;;;;;5065571;28;20519;-65
2021/09/23 12:20:52;;;;;;;7.88;7.13;;;24.40;99.90;;;;;;5050751;28;20209;-64
2021/09/23 12:23:34;;;;;;;10.13;6.60;;;24.40;99.90;;;;;;5055082;28;20256;-65
2021/09/23 12:26:17;;;;;;;6.95;6.38;;;24.10;99.90;;;;;;5071549;28;20180;-64
2021/09/23 12:29:05;;;;;;;16.10;6.30;;;23.70;99.90;;;;;;5063746;28;20723;-67
2021/09/23 12:31:35;;;;;;;7.03;6.43;;;23.50;99.90;;;;;;5051193;28;20547;-65
2021/09/23 12:34:04;;;;;;;7.55;6.85;;;23.60;99.90;;;;;;5058318;28;20174;-66
2021/09/23 12:36:47;;;;;;;10.82;7.65;;;23.50;99.90;;;;;;5054701;28;20262;-65
2021/09/23 12:39:19;;;;;;;8.00;7.20;;;23.40;99.90;;;;;;5059327;28;20185;-65
2021/09/23 12:41:53;;;;;;;8.95;7.28;;;23.20;99.90;;;;;;5070821;28;20182;-65